createdAt,value
2022-09-30T00:01:26.653Z,79.43
2022-09-30T00:03:54.604Z,79.84
2022-09-30T00:06:22.303Z,79.43
2022-09-30T00:08:49.824Z,79.35
2022-09-30T00:11:17.874Z,79.29
2022-09-30T00:13:45.424Z,79.81
2022-09-30T00:16:13.612Z,79.75
2022-09-30T00:18:41.417Z,79.75
2022-09-30T00:21:08.995Z,79.43
2022-09-30T00:23:38.039Z,79.25
2022-09-30T00:26:05.713Z,79.21
2022-09-30T00:28:33.666Z,79.59
2022-09-30T00:31:01.723Z,79.00
2022-09-30T00:33:29.410Z,79.35
2022-09-30T00:35:56.973Z,79.16
2022-09-30T00:38:24.508Z,79.79
2022-09-30T00:40:52.862Z,79.73
2022-09-30T00:43:20.750Z,79.59
2022-09-30T00:45:48.612Z,79.84
2022-09-30T00:48:16.227Z,79.65
2022-09-30T00:50:45.501Z,79.53
2022-09-30T00:53:13.482Z,79.49
2022-09-30T00:55:41.107Z,79.61
2022-09-30T00:58:09.135Z,79.53
2022-09-30T01:00:36.786Z,79.42
2022-09-30T01:03:04.426Z,80.37
2022-09-30T01:05:32.371Z,79.62
2022-09-30T01:08:00.941Z,79.78
2022-09-30T01:10:28.516Z,80.10
2022-09-30T01:12:56.090Z,80.45
2022-09-30T01:15:23.669Z,79.90
2022-09-30T01:17:51.651Z,80.02
2022-09-30T01:20:19.227Z,80.51
2022-09-30T01:22:46.790Z,80.03
2022-09-30T01:25:14.404Z,80.17
2022-09-30T01:27:41.943Z,79.79
2022-09-30T01:30:10.189Z,80.35
2022-09-30T01:32:37.888Z,79.80
2022-09-30T01:35:05.465Z,80.45
2022-09-30T01:37:33.030Z,80.07
2022-09-30T01:40:00.650Z,80.53
2022-09-30T01:42:28.588Z,79.91
2022-09-30T01:44:56.157Z,80.15
2022-09-30T01:47:23.734Z,79.94
2022-09-30T01:49:51.266Z,80.36
2022-09-30T01:52:19.104Z,79.76
2022-09-30T01:54:46.919Z,79.83
2022-09-30T01:57:14.667Z,80.43
2022-09-30T01:59:42.256Z,79.70
2022-09-30T02:02:09.861Z,80.34
2022-09-30T02:04:37.425Z,79.99
2022-09-30T02:07:05.378Z,80.07
2022-09-30T02:09:33.039Z,80.44
2022-09-30T02:12:00.607Z,80.16
2022-09-30T02:14:28.136Z,80.12
2022-09-30T02:16:55.706Z,80.24
2022-09-30T02:19:23.654Z,79.93
2022-09-30T02:21:51.249Z,80.51
2022-09-30T02:24:18.795Z,79.96
2022-09-30T02:26:46.384Z,80.03
2022-09-30T02:29:13.869Z,80.80
2022-09-30T02:31:41.815Z,80.45
2022-09-30T02:34:09.563Z,80.35
2022-09-30T02:36:37.089Z,80.11
2022-09-30T02:39:04.667Z,80.51
2022-09-30T02:41:32.183Z,80.19
2022-09-30T02:43:59.968Z,80.77
2022-09-30T02:46:27.618Z,80.62
2022-09-30T02:48:55.185Z,80.43
2022-09-30T02:51:22.713Z,81.04
2022-09-30T02:53:50.286Z,80.40
2022-09-30T02:56:18.673Z,80.67
2022-09-30T02:58:46.216Z,80.46
2022-09-30T03:01:13.887Z,80.44
2022-09-30T03:03:41.442Z,80.38
2022-09-30T03:06:08.953Z,80.70
2022-09-30T03:08:36.873Z,80.01
2022-09-30T03:11:04.403Z,79.88
2022-09-30T03:13:31.927Z,80.59
2022-09-30T03:15:59.581Z,80.22
2022-09-30T03:18:27.467Z,80.65
2022-09-30T03:20:55.474Z,80.54
2022-09-30T03:23:23.214Z,80.52
2022-09-30T03:25:50.743Z,80.28
2022-09-30T03:28:18.286Z,80.62
2022-09-30T03:30:45.855Z,80.55
2022-09-30T03:33:13.870Z,80.74
2022-09-30T03:35:41.576Z,80.65
2022-09-30T03:38:09.166Z,80.08
2022-09-30T03:40:36.701Z,80.09
2022-09-30T03:43:04.247Z,80.82
2022-09-30T03:45:32.179Z,80.63
2022-09-30T03:48:00.018Z,80.43
2022-09-30T03:50:27.551Z,80.08
2022-09-30T03:52:55.143Z,80.55
2022-09-30T03:55:22.659Z,80.93
2022-09-30T03:57:51.719Z,80.51
2022-09-30T04:00:20.855Z,80.86
2022-09-30T04:02:48.391Z,80.57
2022-09-30T04:05:15.924Z,80.27
2022-09-30T04:07:43.493Z,80.71
2022-09-30T04:10:11.378Z,80.44
2022-09-30T04:12:38.954Z,81.09
2022-09-30T04:15:06.512Z,80.93
2022-09-30T04:17:34.006Z,81.13
2022-09-30T04:20:01.505Z,80.49
2022-09-30T04:22:29.709Z,80.79
2022-09-30T04:24:57.583Z,80.85
2022-09-30T04:27:25.065Z,80.36
2022-09-30T04:29:52.626Z,80.46
2022-09-30T04:32:20.119Z,81.01
2022-09-30T04:34:47.644Z,80.91
2022-09-30T04:37:15.819Z,81.11
2022-09-30T04:39:44.331Z,80.54
2022-09-30T04:42:12.147Z,80.15
2022-09-30T04:44:39.739Z,80.95
2022-09-30T04:47:07.672Z,80.33
2022-09-30T04:49:35.267Z,80.81
2022-09-30T04:52:02.827Z,81.07
2022-09-30T04:54:30.342Z,80.27
2022-09-30T04:56:57.919Z,80.51
2022-09-30T04:59:25.855Z,80.84
2022-09-30T05:01:53.598Z,80.85
2022-09-30T05:04:21.941Z,81.03
2022-09-30T05:06:50.185Z,81.06
2022-09-30T05:09:17.742Z,80.62
2022-09-30T05:11:45.737Z,80.60
2022-09-30T05:14:13.314Z,80.76
2022-09-30T05:16:40.953Z,80.77
2022-09-30T05:19:08.590Z,80.91
2022-09-30T05:21:36.165Z,80.82
2022-09-30T05:24:04.139Z,81.12
2022-09-30T05:26:33.063Z,80.42
2022-09-30T05:29:00.965Z,80.43
2022-09-30T05:31:28.612Z,80.84
2022-09-30T05:33:58.227Z,80.45
2022-09-30T05:36:26.042Z,80.88
2022-09-30T05:38:53.662Z,80.51
2022-09-30T05:41:21.404Z,80.50
2022-09-30T05:43:49.018Z,80.94
2022-09-30T05:46:16.676Z,80.63
2022-09-30T05:48:44.653Z,80.30
2022-09-30T05:51:13.567Z,80.26
2022-09-30T05:53:41.309Z,80.74
2022-09-30T05:56:08.876Z,80.39
2022-09-30T05:58:36.503Z,80.26
2022-09-30T06:01:12.068Z,80.07
2022-09-30T06:03:40.977Z,79.96
2022-09-30T06:06:08.602Z,79.98
2022-09-30T06:08:36.163Z,80.15
2022-09-30T06:11:03.878Z,79.93
2022-09-30T06:13:31.929Z,79.24
2022-09-30T06:15:59.986Z,79.47
2022-09-30T06:18:27.680Z,79.39
2022-09-30T06:20:55.708Z,79.59
2022-09-30T06:23:23.422Z,79.05
2022-09-30T06:25:51.417Z,79.67
2022-09-30T06:28:19.370Z,79.36
2022-09-30T06:30:46.943Z,79.21
2022-09-30T06:33:14.661Z,78.86
2022-09-30T06:35:42.891Z,79.20
2022-09-30T06:38:10.862Z,79.17
2022-09-30T06:40:38.769Z,78.88
2022-09-30T06:43:06.811Z,78.59
2022-09-30T06:45:35.875Z,78.42
2022-09-30T06:48:05.139Z,78.58
2022-09-30T06:50:33.274Z,77.95
2022-09-30T06:53:01.210Z,78.47
2022-09-30T06:55:29.241Z,78.38
2022-09-30T06:57:56.919Z,77.75
2022-09-30T07:00:24.557Z,78.14
2022-09-30T07:02:52.227Z,78.09
2022-09-30T07:05:20.223Z,77.51
2022-09-30T07:07:49.247Z,77.29
2022-09-30T07:10:16.984Z,77.76
2022-09-30T07:12:44.630Z,77.16
2022-09-30T07:15:13.849Z,77.09
2022-09-30T07:17:43.559Z,76.67
2022-09-30T07:20:11.193Z,76.73
2022-09-30T07:22:38.784Z,76.37
2022-09-30T07:25:07.256Z,76.07
2022-09-30T07:27:35.818Z,75.35
2022-09-30T07:30:09.463Z,75.48
2022-09-30T07:32:39.270Z,75.05
2022-09-30T07:35:07.476Z,75.28
2022-09-30T07:37:36.574Z,74.86
2022-09-30T07:40:04.714Z,74.05
2022-09-30T07:42:32.295Z,74.45
2022-09-30T07:45:00.669Z,74.36
2022-09-30T07:47:28.350Z,73.47
2022-09-30T07:49:56.347Z,73.76
2022-09-30T07:52:24.220Z,73.05
2022-09-30T07:54:51.910Z,73.39
2022-09-30T07:57:19.548Z,73.30
2022-09-30T07:59:47.444Z,73.18
2022-09-30T08:02:15.877Z,72.87
2022-09-30T08:04:44.933Z,72.40
2022-09-30T08:07:12.965Z,72.33
2022-09-30T08:09:40.765Z,72.10
2022-09-30T08:12:08.638Z,71.88
2022-09-30T08:14:36.640Z,71.83
2022-09-30T08:17:04.776Z,71.82
2022-09-30T08:19:33.850Z,71.53
2022-09-30T08:24:30.767Z,71.07
2022-09-30T08:26:58.841Z,70.47
2022-09-30T08:29:53.380Z,69.88
2022-09-30T08:32:14.887Z,69.83
2022-09-30T08:34:42.994Z,69.25
2022-09-30T08:37:12.132Z,69.05
2022-09-30T08:39:40.409Z,69.06
2022-09-30T08:42:19.160Z,68.92
2022-09-30T08:44:56.520Z,69.17
2022-09-30T08:47:25.767Z,68.99
2022-09-30T08:49:54.032Z,68.95
2022-09-30T08:52:30.507Z,68.72
2022-09-30T08:55:05.521Z,68.54
2022-09-30T08:57:34.375Z,68.64
2022-09-30T09:00:05.771Z,68.13
2022-09-30T09:02:34.224Z,68.41
2022-09-30T09:05:02.468Z,67.98
2022-09-30T09:07:30.453Z,68.25
2022-09-30T09:34:44.843Z,66.42
2022-09-30T09:37:12.530Z,65.75
2022-09-30T09:39:40.077Z,65.54
2022-09-30T09:42:08.254Z,65.56
2022-09-30T09:44:35.990Z,64.99
2022-09-30T09:47:05.841Z,65.13
2022-09-30T09:49:33.702Z,64.33
2022-09-30T09:52:03.397Z,64.40
2022-09-30T09:54:31.503Z,63.82
2022-09-30T09:56:59.316Z,63.33
2022-09-30T09:59:27.569Z,62.43
2022-09-30T10:01:55.919Z,61.88
2022-09-30T10:04:26.109Z,60.46
2022-09-30T10:06:54.318Z,58.17
2022-09-30T10:09:22.320Z,57.02
2022-09-30T10:11:50.769Z,56.27
2022-09-30T10:14:18.591Z,57.34
2022-09-30T10:16:46.610Z,58.35
2022-09-30T10:19:14.546Z,58.98
2022-09-30T10:21:42.192Z,58.33
2022-09-30T10:24:10.894Z,58.44
2022-09-30T10:26:38.684Z,59.64
2022-09-30T10:29:06.493Z,60.93
2022-09-30T10:31:34.369Z,61.47
2022-09-30T10:34:02.244Z,62.22
2022-09-30T10:36:30.596Z,62.98
2022-09-30T10:39:01.215Z,63.65
2022-09-30T10:41:32.088Z,64.89
2022-09-30T10:43:59.884Z,64.98
2022-09-30T10:46:27.989Z,65.03
2022-09-30T10:48:57.174Z,65.20
2022-09-30T10:51:25.381Z,65.35
2022-09-30T10:53:53.414Z,65.57
2022-09-30T10:56:21.292Z,65.13
2022-09-30T10:58:49.026Z,64.50
2022-09-30T11:01:18.540Z,64.54
2022-09-30T11:03:46.681Z,63.83
2022-09-30T11:06:15.285Z,63.36
2022-09-30T11:08:43.207Z,63.42
2022-09-30T11:11:11.432Z,64.04
2022-09-30T11:13:39.467Z,62.71
2022-09-30T11:16:07.193Z,61.34
2022-09-30T11:18:35.143Z,60.03
2022-09-30T11:21:03.556Z,60.03
2022-09-30T11:23:31.639Z,59.59
2022-09-30T11:26:00.102Z,59.11
2022-09-30T11:28:27.965Z,58.39
2022-09-30T11:30:55.871Z,55.26
2022-09-30T11:33:23.709Z,55.13
2022-09-30T11:35:51.437Z,55.89
2022-09-30T11:38:19.913Z,56.50
2022-09-30T11:40:47.921Z,54.45
2022-09-30T11:43:15.734Z,51.69
2022-09-30T11:45:44.068Z,50.76
2022-09-30T11:48:11.924Z,49.09
2022-09-30T11:50:40.040Z,49.68
2022-09-30T11:53:08.098Z,49.18
2022-09-30T11:55:35.891Z,50.33
2022-09-30T11:58:22.231Z,51.81
2022-09-30T12:00:52.417Z,53.97
2022-09-30T12:03:20.266Z,55.52
2022-09-30T12:05:48.201Z,56.02
2022-09-30T12:08:16.015Z,55.60
2022-09-30T12:10:44.435Z,57.08
2022-09-30T12:13:13.279Z,58.29
2022-09-30T12:15:41.096Z,58.71
2022-09-30T12:18:09.822Z,58.90
2022-09-30T12:20:37.568Z,58.80
2022-09-30T12:23:05.367Z,58.78
2022-09-30T12:25:34.068Z,59.82
2022-09-30T12:28:22.239Z,58.62
2022-09-30T12:30:49.253Z,57.71
2022-09-30T12:33:18.147Z,56.77
2022-09-30T12:35:46.658Z,56.01
2022-09-30T12:38:14.382Z,55.80
2022-09-30T12:40:42.352Z,55.15
2022-09-30T12:43:10.281Z,54.95
2022-09-30T12:45:38.045Z,55.16
2022-09-30T12:48:08.383Z,54.30
2022-09-30T12:50:36.500Z,54.68
2022-09-30T12:53:04.385Z,54.33
2022-09-30T12:55:32.656Z,54.03
2022-09-30T12:58:01.886Z,54.44
2022-09-30T13:00:31.372Z,53.85
2022-09-30T13:02:59.368Z,53.73
2022-09-30T13:05:27.143Z,53.07
2022-09-30T13:07:55.403Z,53.07
2022-09-30T13:10:23.817Z,53.40
2022-09-30T13:12:54.719Z,53.32
2022-09-30T13:15:22.683Z,52.93
2022-09-30T13:17:50.487Z,52.38
2022-09-30T13:20:18.667Z,52.45
2022-09-30T13:22:46.497Z,52.32
2022-09-30T13:25:14.981Z,52.17
2022-09-30T13:27:42.824Z,51.74
2022-09-30T13:30:10.659Z,51.72
2022-09-30T13:32:38.600Z,51.03
2022-09-30T13:35:06.515Z,50.35
2022-09-30T13:37:35.144Z,49.77
2022-09-30T13:40:02.959Z,48.75
2022-09-30T13:42:31.618Z,48.79
2022-09-30T13:44:59.395Z,47.55
2022-09-30T13:47:27.360Z,47.46
2022-09-30T13:49:57.122Z,47.93
2022-09-30T13:52:25.217Z,47.79
2022-09-30T13:54:53.479Z,47.13
2022-09-30T13:57:21.372Z,47.03
2022-09-30T13:59:49.067Z,46.23
2022-09-30T14:02:20.203Z,47.21
2022-09-30T14:04:50.098Z,47.88
2022-09-30T14:07:18.290Z,47.94
2022-09-30T14:09:47.419Z,48.50
2022-09-30T14:12:15.303Z,49.05
2022-09-30T14:14:46.838Z,48.44
2022-09-30T14:17:15.424Z,48.48
2022-09-30T14:19:43.666Z,48.42
2022-09-30T14:22:11.806Z,47.80
2022-09-30T14:24:40.478Z,47.24
2022-09-30T14:27:08.836Z,47.05
2022-09-30T14:29:36.612Z,46.95
2022-09-30T14:32:04.627Z,46.83
2022-09-30T14:37:21.193Z,46.43
2022-09-30T14:39:49.513Z,46.15
2022-09-30T14:42:17.776Z,46.47
2022-09-30T14:44:46.043Z,46.46
2022-09-30T14:47:13.935Z,45.80
2022-09-30T14:49:42.594Z,46.15
2022-09-30T14:52:10.503Z,45.99
2022-09-30T14:54:38.303Z,45.64
2022-09-30T14:57:06.942Z,46.04
2022-09-30T14:59:39.998Z,45.62
2022-09-30T15:02:10.660Z,46.18
2022-09-30T15:04:38.783Z,46.58
2022-09-30T15:07:07.460Z,46.62
2022-09-30T15:09:36.293Z,47.72
2022-09-30T15:12:04.213Z,46.48
2022-09-30T15:14:33.779Z,45.35
2022-09-30T15:17:06.058Z,45.11
2022-09-30T15:19:34.501Z,44.42
2022-09-30T15:22:02.647Z,44.20
2022-09-30T15:24:31.498Z,43.19
2022-09-30T15:27:00.065Z,42.47
2022-09-30T15:29:28.244Z,42.60
2022-09-30T15:31:56.169Z,41.73
2022-09-30T15:34:24.255Z,42.33
2022-09-30T15:36:52.184Z,41.88
2022-09-30T15:39:20.554Z,41.73
2022-09-30T15:41:48.668Z,42.70
2022-09-30T15:44:16.421Z,43.65
2022-09-30T15:46:44.223Z,45.11
2022-09-30T15:49:12.033Z,47.02
2022-09-30T15:51:40.457Z,48.74
2022-09-30T15:54:09.455Z,49.35
2022-09-30T15:56:37.432Z,50.11
2022-09-30T15:59:05.348Z,50.75
2022-09-30T16:01:33.383Z,52.17
2022-09-30T16:04:02.306Z,52.33
2022-09-30T16:06:32.659Z,52.67
2022-09-30T16:09:01.558Z,52.91
2022-09-30T16:11:29.390Z,53.37
2022-09-30T16:13:58.329Z,53.19
2022-09-30T16:16:27.298Z,53.55
2022-09-30T16:18:55.262Z,53.08
2022-09-30T16:21:23.083Z,53.27
2022-09-30T16:23:51.309Z,53.97
2022-09-30T16:26:19.284Z,54.06
2022-09-30T16:28:48.376Z,53.54
2022-09-30T16:31:16.899Z,54.07
2022-09-30T16:33:44.816Z,54.44
2022-09-30T16:36:13.680Z,54.18
2022-09-30T16:38:41.565Z,54.74
2022-09-30T16:41:09.810Z,55.14
2022-09-30T16:43:39.183Z,54.90
2022-09-30T16:46:07.548Z,54.95
2022-09-30T16:48:36.457Z,55.24
2022-09-30T16:51:04.163Z,55.54
2022-09-30T16:53:32.865Z,56.09
2022-09-30T16:56:01.206Z,56.42
2022-09-30T16:58:29.044Z,56.15
2022-09-30T17:00:58.047Z,56.55
2022-09-30T17:03:25.726Z,56.74
2022-09-30T17:05:55.291Z,57.72
2022-09-30T17:08:24.018Z,57.40
2022-09-30T17:10:51.815Z,57.39
2022-09-30T17:13:19.617Z,57.88
2022-09-30T17:15:47.447Z,58.26
2022-09-30T17:18:16.101Z,57.94
2022-09-30T17:20:43.976Z,58.71
2022-09-30T17:23:12.557Z,58.78
2022-09-30T17:25:41.470Z,58.40
2022-09-30T17:28:09.343Z,58.88
2022-09-30T17:30:39.640Z,59.04
2022-09-30T17:33:07.829Z,59.02
2022-09-30T17:35:36.606Z,58.95
2022-09-30T17:38:04.505Z,59.21
2022-09-30T17:40:50.001Z,59.45
2022-09-30T17:43:18.077Z,59.51
2022-09-30T17:45:46.508Z,59.24
2022-09-30T17:48:14.487Z,59.43
2022-09-30T17:50:44.508Z,59.50
2022-09-30T17:53:13.367Z,59.89
2022-09-30T17:55:41.699Z,60.29
2022-09-30T17:58:09.587Z,59.84
2022-09-30T18:00:37.925Z,59.96
2022-09-30T18:03:05.780Z,59.82
2022-09-30T18:05:34.067Z,59.50
2022-09-30T18:08:02.788Z,59.19
2022-09-30T18:10:30.693Z,59.50
2022-09-30T18:12:59.905Z,59.38
2022-09-30T18:15:28.454Z,59.83
2022-09-30T18:17:56.867Z,59.97
2022-09-30T18:20:25.654Z,59.79
2022-09-30T18:22:53.695Z,59.74
2022-09-30T18:25:21.574Z,60.02
2022-09-30T18:27:49.445Z,60.15
2022-09-30T18:30:17.778Z,60.17
2022-09-30T18:32:45.807Z,60.24
2022-09-30T18:35:14.405Z,60.30
2022-09-30T18:37:43.427Z,60.28
2022-09-30T18:40:11.923Z,60.57
2022-09-30T18:42:40.095Z,60.68
2022-09-30T18:45:08.657Z,61.06
2022-09-30T18:47:36.508Z,61.12
2022-09-30T18:50:04.351Z,60.96
2022-09-30T18:52:32.113Z,60.99
2022-09-30T18:55:00.191Z,60.60
2022-09-30T18:57:33.655Z,60.71
2022-09-30T19:00:02.106Z,60.85
2022-09-30T19:02:30.044Z,61.03
2022-09-30T19:04:59.958Z,60.93
2022-09-30T19:07:28.038Z,61.13
2022-09-30T19:09:56.112Z,61.21
2022-09-30T19:12:23.893Z,61.26
2022-09-30T19:14:52.011Z,60.97
2022-09-30T19:17:20.307Z,61.44
2022-09-30T19:19:48.681Z,61.57
2022-09-30T19:22:16.642Z,61.84
2022-09-30T19:24:44.382Z,62.05
2022-09-30T19:27:12.492Z,62.15
2022-09-30T19:29:40.812Z,62.14
2022-09-30T19:32:10.450Z,62.25
2022-09-30T19:34:38.282Z,62.09
2022-09-30T19:37:07.702Z,61.98
2022-09-30T19:39:45.551Z,62.34
2022-09-30T19:42:17.859Z,62.53
2022-09-30T19:44:45.634Z,62.44
2022-09-30T19:47:13.534Z,62.30
2022-09-30T19:49:41.324Z,62.67
2022-09-30T19:52:17.996Z,62.51
2022-09-30T19:54:49.567Z,62.39
2022-09-30T19:57:17.347Z,62.34
2022-09-30T19:59:45.312Z,62.22
2022-09-30T20:02:13.166Z,62.47
2022-09-30T20:04:42.472Z,62.17
2022-09-30T20:07:10.835Z,62.28
2022-09-30T20:09:38.721Z,62.50
2022-09-30T20:12:07.991Z,62.26
2022-09-30T20:14:53.083Z,62.11
2022-09-30T20:17:21.434Z,62.27
2022-09-30T20:20:09.645Z,62.63
2022-09-30T20:22:37.420Z,62.11
2022-09-30T20:25:05.351Z,62.66
2022-09-30T20:27:33.672Z,62.17
2022-09-30T20:30:01.501Z,62.32
2022-09-30T20:32:30.973Z,61.87
2022-09-30T20:34:58.925Z,61.73
2022-09-30T20:37:26.769Z,62.00
2022-09-30T20:39:56.453Z,61.15
2022-09-30T20:42:25.936Z,61.84
2022-09-30T20:44:53.611Z,61.78
2022-09-30T20:47:21.436Z,61.66
2022-09-30T20:49:49.228Z,61.27
2022-09-30T20:52:17.902Z,61.28
2022-09-30T20:54:45.701Z,61.58
2022-09-30T20:57:13.513Z,61.87
2022-09-30T20:59:41.376Z,62.04
2022-09-30T21:02:09.144Z,61.99
2022-09-30T21:04:37.616Z,62.11
2022-09-30T21:07:07.015Z,62.03
2022-09-30T21:09:35.580Z,62.41
2022-09-30T21:12:03.376Z,62.22
2022-09-30T21:14:31.032Z,62.13
2022-09-30T21:16:59.312Z,61.89
2022-09-30T21:19:27.093Z,62.33
2022-09-30T21:21:56.971Z,61.86
2022-09-30T21:24:26.056Z,61.79
2022-09-30T21:26:54.615Z,62.43
2022-09-30T21:29:24.263Z,62.25
2022-09-30T21:31:52.231Z,62.33
2022-09-30T21:34:19.870Z,62.33
2022-09-30T21:36:49.435Z,62.24
2022-09-30T21:39:17.235Z,62.44
2022-09-30T21:41:45.878Z,62.05
2022-09-30T21:44:14.107Z,62.08
2022-09-30T21:46:46.056Z,62.35
2022-09-30T21:49:16.349Z,62.49
2022-09-30T21:51:44.233Z,62.07
2022-09-30T21:54:13.751Z,62.07
2022-09-30T21:56:41.488Z,62.44
2022-09-30T21:59:09.323Z,61.94
2022-09-30T22:01:37.692Z,61.94
2022-09-30T22:04:05.516Z,62.48
2022-09-30T22:06:33.500Z,62.39
2022-09-30T22:09:01.723Z,62.01
2022-09-30T22:11:29.640Z,61.80
2022-09-30T22:13:57.759Z,62.02
2022-09-30T22:16:27.120Z,62.51
2022-09-30T22:18:55.491Z,62.25
2022-09-30T22:21:23.271Z,61.75
2022-09-30T22:23:50.940Z,62.20
2022-09-30T22:26:18.863Z,61.83
2022-09-30T22:28:46.955Z,62.41
2022-09-30T22:31:15.275Z,62.24
2022-09-30T22:34:00.768Z,61.86
2022-09-30T22:36:45.758Z,62.32
2022-09-30T22:39:13.519Z,62.23
2022-09-30T22:41:41.956Z,62.17
2022-09-30T22:44:09.552Z,61.68
2022-09-30T22:46:37.218Z,62.14
2022-09-30T22:49:05.291Z,62.46
2022-09-30T22:51:33.757Z,62.31
2022-09-30T22:54:02.230Z,62.48
2022-09-30T22:56:29.919Z,62.18
2022-09-30T22:58:58.235Z,62.29
2022-09-30T23:01:25.990Z,62.64
2022-09-30T23:03:54.380Z,62.50
2022-09-30T23:06:23.266Z,62.05
2022-09-30T23:08:50.853Z,61.97
2022-09-30T23:11:18.989Z,62.06
2022-09-30T23:13:46.806Z,62.50
2022-09-30T23:16:14.483Z,62.57
2022-09-30T23:18:42.306Z,62.50
2022-09-30T23:21:09.882Z,62.61
2022-09-30T23:23:37.588Z,62.29
2022-09-30T23:26:05.269Z,62.49
2022-09-30T23:28:32.847Z,62.73
2022-09-30T23:31:01.571Z,63.35
2022-09-30T23:33:29.165Z,62.79
2022-09-30T23:35:56.758Z,62.63
2022-09-30T23:38:24.488Z,62.82
2022-09-30T23:40:52.455Z,63.00
2022-09-30T23:43:22.787Z,62.49
2022-09-30T23:45:50.426Z,62.64
2022-09-30T23:48:18.200Z,62.71
2022-09-30T23:50:49.085Z,62.79
2022-09-30T23:53:17.202Z,63.15
2022-09-30T23:55:45.099Z,62.79
2022-09-30T23:58:12.627Z,62.76
